Huntington, Arkansas
Current Conditions -  °F | °C
As of 8:53 PM on Monday 22 Dec 2014 (Local Time) from KFSM Reporting Station
Clear Clear  
Wind Chill: 45°   Ceiling: Unl
Heat Index: 47°   Visibility: 10mi
Dew Point: 44°   Wind: 5mph
Humidity: 90%   Direction: 230°SW
Pressure: 29.65"   Gusts: NA
Location:  35.08°N, 94.26°W
Report Text: KFSM 230253Z 23004KT 10SM CLR 08/07 A2965 RMK AO2 SLP040 T00830067 51015
Loading
Personal Weather Stations






























Interactive Weather Map New forecast layout! Learn more

10-Day Weather Forecast

Advertisements
Track Severe Weather on mobile